This is the latest recevied weather packets stored in our database for station/object SR7U-1. If no packets are shown the sender has not sent any weather packets the latest 10 day(s).
| Time | Temp. | Humidity | Pressure | Rain* | Wind** | Luminosity | Snow |
|---|---|---|---|---|---|---|---|
| 1778149500 | 18.33° C | 66% | 1010.2 hPa | - | - | - | - |
| 1778148725 | 18.33° C | 65% | 1010.2 hPa | - | - | - | - |
| 1778147953 | 18.33° C | 64% | 1009.9 hPa | - | - | - | - |
| 1778147110 | 18.89° C | 61% | 1009.8 hPa | - | - | - | - |
| 1778146288 | 18.89° C | 62% | 1009.6 hPa | - | - | - | - |
| 1778145480 | 18.89° C | 60% | 1009.4 hPa | - | - | - | - |
| 1778144604 | 18.89° C | 61% | 1009.3 hPa | - | - | - | - |
| 1778143885 | 18.89° C | 60% | 1009.1 hPa | - | - | - | - |
| 1778143165 | 19.44° C | 57% | 1008.9 hPa | - | - | - | - |
| 1778142400 | 19.44° C | 59% | 1008.8 hPa | - | - | - | - |
| 1778141510 | 19.44° C | 58% | 1008.8 hPa | - | - | - | - |
| 1778140755 | 19.44° C | 59% | 1008.4 hPa | - | - | - | - |
| 1778139880 | 18.89° C | 61% | 1008.5 hPa | - | - | - | - |
| 1778139045 | 18.89° C | 61% | 1008.4 hPa | - | - | - | - |
| 1778138225 | 18.89° C | 62% | 1008.4 hPa | - | - | - | - |
| 1778137491 | 18.33° C | 62% | 1008.2 hPa | - | - | - | - |
| 1778136730 | 18.33° C | 59% | 1008 hPa | - | - | - | - |
| 1778135925 | 18.33° C | 59% | 1008 hPa | - | - | - | - |
| 1778135045 | 17.78° C | 61% | 1007.9 hPa | - | - | - | - |
| 1778134175 | 17.78° C | 60% | 1007.8 hPa | - | - | - | - |
| 1778133420 | 17.78° C | 62% | 1007.8 hPa | - | - | - | - |
| 1778132660 | 17.22° C | 62% | 1007.7 hPa | - | - | - | - |
| 1778131895 | 16.67° C | 63% | 1007.6 hPa | - | - | - | - |
| 1778131125 | 16.67° C | 64% | 1007.6 hPa | - | - | - | - |
| 1778130395 | 15.56° C | 66% | 1007.5 hPa | - | - | - | - |
* Rain since midnight (hover to see other rain measurements)
** Current wind speed in m/s (hover to see current wind gust speed)